Time;durP1;ratioP1;P1;durP2;ratioP2;P2;SDS_P1;SDS_P2;PMS_P1;PMS_P2;Temp;Humidity;BMP_temperature;BMP_pressure;BME280_temperature;BME280_humidity;BME280_pressure;Samples;Min_cycle;Max_cycle;Signal;HPM_P1;HPM_P2
2023/05/08 00:01:25;;;;;;;6.70;6.00;;;13.00;1.00;;;;;;5063437;28;20223;-80
2023/05/08 00:03:51;;;;;;;7.13;6.43;;;12.90;1.00;;;;;;5066919;28;20184;-78
2023/05/08 00:06:17;;;;;;;6.23;5.63;;;12.90;99.90;;;;;;5066443;28;20210;-80
2023/05/08 00:08:42;;;;;;;6.93;6.23;;;12.90;99.90;;;;;;5065307;28;20184;-81
2023/05/08 00:11:08;;;;;;;7.00;5.97;;;12.90;1.00;;;;;;5065754;28;20251;-82
2023/05/08 00:13:34;;;;;;;6.73;6.03;;;13.00;1.00;;;;;;5064591;28;20200;-80
2023/05/08 00:15:59;;;;;;;6.80;6.10;;;12.90;17.40;;;;;;5067838;28;20184;-80
2023/05/08 00:18:25;;;;;;;6.70;6.10;;;12.90;99.90;;;;;;5065290;28;20245;-81
2023/05/08 00:20:51;;;;;;;6.57;5.97;;;13.00;22.60;;;;;;5065280;28;20198;-80
2023/05/08 00:23:16;;;;;;;6.43;5.83;;;13.00;4.40;;;;;;5065782;28;20184;-80
2023/05/08 00:25:42;;;;;;;8.43;6.00;;;13.00;83.90;;;;;;5065534;28;20616;-79
2023/05/08 00:28:08;;;;;;;6.60;6.00;;;13.00;1.00;;;;;;5066051;28;20537;-80
2023/05/08 00:30:33;;;;;;;7.83;6.73;;;12.90;99.90;;;;;;5050468;28;20216;-81
2023/05/08 00:32:59;;;;;;;6.37;5.77;;;12.90;99.90;;;;;;5048034;28;20166;-81
2023/05/08 00:35:24;;;;;;;6.33;5.73;;;12.80;99.90;;;;;;5046654;28;20180;-80
2023/05/08 00:37:50;;;;;;;6.63;6.03;;;12.80;99.90;;;;;;5046733;28;20185;-80
2023/05/08 00:40:16;;;;;;;6.47;5.87;;;12.80;99.90;;;;;;5047676;28;20205;-83
2023/05/08 00:42:41;;;;;;;6.53;5.83;;;12.80;1.00;;;;;;5047679;28;20632;-82
2023/05/08 00:45:07;;;;;;;7.00;6.30;;;12.90;1.00;;;;;;5048465;28;20208;-80
2023/05/08 00:47:33;;;;;;;6.67;5.97;;;12.80;1.00;;;;;;5047756;28;20181;-80
2023/05/08 00:49:59;;;;;;;6.93;6.23;;;12.70;99.90;;;;;;5048314;28;20202;-80
2023/05/08 00:52:28;;;;;;;5.90;5.40;;;12.70;1.00;;;;;;5050075;28;20237;-81
2023/05/08 00:54:54;;;;;;;6.20;5.60;;;12.80;99.90;;;;;;5048743;28;20194;-79
2023/05/08 00:57:21;;;;;;;6.87;6.27;;;12.70;1.00;;;;;;5050379;28;20588;-82
2023/05/08 00:59:48;;;;;;;7.57;6.43;;;12.70;1.00;;;;;;5050040;28;20229;-83
2023/05/08 01:02:13;;;;;;;6.23;5.63;;;12.60;1.00;;;;;;5049057;28;20178;-81
2023/05/08 01:04:43;;;;;;;6.60;6.00;;;12.60;99.90;;;;;;5049318;28;20261;-83
2023/05/08 01:07:09;;;;;;;6.40;5.80;;;12.70;99.90;;;;;;5048610;28;20166;-81
2023/05/08 01:09:35;;;;;;;8.13;6.03;;;12.70;85.70;;;;;;5050191;28;20242;-84
2023/05/08 01:12:01;;;;;;;7.53;6.00;;;12.70;1.00;;;;;;5049710;28;20178;-82
2023/05/08 01:15:01;;;;;;;6.67;6.07;;;12.70;9.00;;;;;;5047872;28;20174;-80
2023/05/08 01:17:35;;;;;;;7.77;6.40;;;12.70;12.90;;;;;;5044544;28;20189;-83
2023/05/08 01:20:44;;;;;;;7.00;6.30;;;12.70;1.00;;;;;;5047978;28;20588;-83
2023/05/08 01:23:31;;;;;;;7.33;6.57;;;12.60;99.90;;;;;;5045889;28;20182;-79
2023/05/08 01:26:12;;;;;;;6.90;6.20;;;12.60;1.00;;;;;;5048598;28;20197;-79
2023/05/08 01:28:53;;;;;;;7.27;6.37;;;12.50;99.90;;;;;;5048115;28;20174;-81
2023/05/08 01:31:27;;;;;;;6.80;6.20;;;12.40;1.00;;;;;;5045581;28;20206;-81
2023/05/08 01:34:05;;;;;;;6.90;6.10;;;12.40;1.00;;;;;;5046760;28;20229;-81
2023/05/08 01:36:41;;;;;;;6.57;5.97;;;12.50;94.10;;;;;;5042792;28;20176;-80
2023/05/08 01:39:07;;;;;;;7.10;6.40;;;12.50;1.00;;;;;;5040463;28;20257;-80
2023/05/08 01:41:35;;;;;;;7.30;6.20;;;12.40;1.00;;;;;;5040104;28;20221;-80
2023/05/08 01:44:20;;;;;;;6.97;6.37;;;12.40;1.00;;;;;;5042002;28;20175;-80
2023/05/08 01:46:49;;;;;;;7.17;6.40;;;12.30;1.00;;;;;;5040916;28;20555;-80
2023/05/08 01:49:27;;;;;;;8.00;6.70;;;12.40;1.00;;;;;;5042970;28;20522;-81
2023/05/08 01:52:04;;;;;;;7.60;6.80;;;12.30;1.00;;;;;;5040893;28;20658;-82
2023/05/08 01:54:40;;;;;;;7.07;6.37;;;12.30;1.00;;;;;;5043449;28;20166;-80
2023/05/08 01:57:06;;;;;;;7.17;6.47;;;12.30;1.00;;;;;;5043444;28;20173;-80
2023/05/08 01:59:34;;;;;;;9.87;6.50;;;12.20;99.90;;;;;;5041075;28;20209;-80
2023/05/08 02:02:01;;;;;;;6.97;6.27;;;12.30;1.00;;;;;;5041881;28;20178;-80
2023/05/08 02:04:28;;;;;;;7.97;6.50;;;12.30;99.90;;;;;;5042580;28;20174;-82
2023/05/08 02:06:55;;;;;;;7.07;6.40;;;12.30;99.90;;;;;;5041508;28;20209;-80
2023/05/08 02:09:22;;;;;;;6.80;6.20;;;12.30;1.00;;;;;;5040814;28;20597;-81
2023/05/08 02:11:49;;;;;;;6.90;6.30;;;12.40;1.00;;;;;;5040597;28;20213;-80
2023/05/08 02:14:18;;;;;;;6.80;6.10;;;12.40;99.90;;;;;;5042011;28;20177;-80
2023/05/08 02:16:45;;;;;;;7.00;6.40;;;12.30;99.90;;;;;;5041866;28;20178;-81
2023/05/08 02:19:13;;;;;;;6.97;6.27;;;12.30;99.90;;;;;;5042409;28;20181;-80
2023/05/08 02:21:40;;;;;;;7.50;6.80;;;12.20;99.90;;;;;;5043950;28;20272;-80
2023/05/08 02:24:07;;;;;;;7.23;6.53;;;12.30;1.00;;;;;;5043818;28;20289;-82
2023/05/08 02:26:34;;;;;;;7.27;6.57;;;12.20;1.00;;;;;;5044170;28;20210;-80
2023/05/08 02:29:02;;;;;;;8.70;6.60;;;12.20;99.90;;;;;;5044026;28;20167;-80
2023/05/08 02:31:28;;;;;;;7.67;6.87;;;12.10;1.00;;;;;;5042755;28;20193;-80
2023/05/08 02:33:56;;;;;;;7.43;6.73;;;12.00;1.00;;;;;;5045660;28;20174;-82
2023/05/08 02:36:22;;;;;;;8.63;7.07;;;12.00;1.00;;;;;;5046650;28;20174;-83
2023/05/08 02:38:53;;;;;;;7.93;7.00;;;12.00;99.90;;;;;;5047477;28;20170;-80
2023/05/08 02:41:21;;;;;;;10.63;7.27;;;12.00;1.00;;;;;;5048792;28;20225;-82
2023/05/08 02:43:47;;;;;;;8.73;7.37;;;11.90;99.90;;;;;;5048005;28;20177;-81
2023/05/08 02:46:21;;;;;;;8.03;7.23;;;11.90;99.90;;;;;;5047558;28;20675;-80
2023/05/08 02:48:58;;;;;;;8.17;7.33;;;11.80;1.00;;;;;;5049412;28;20167;-82
2023/05/08 02:51:47;;;;;;;9.30;7.00;;;11.90;99.90;;;;;;5048156;28;20220;-80
2023/05/08 02:54:31;;;;;;;9.63;7.60;;;11.70;1.00;;;;;;5050794;28;20200;-83
2023/05/08 02:57:00;;;;;;;8.77;7.60;;;11.70;99.90;;;;;;5047535;28;20178;-82
2023/05/08 02:59:36;;;;;;;8.73;7.73;;;11.80;99.90;;;;;;5042319;28;20645;-80
2023/05/08 03:02:15;;;;;;;8.20;7.40;;;11.70;99.90;;;;;;5045487;28;20641;-81
2023/05/08 03:04:52;;;;;;;8.17;7.33;;;11.60;99.90;;;;;;5044667;28;20192;-80
2023/05/08 03:07:20;;;;;;;8.20;7.27;;;11.60;99.90;;;;;;5047445;28;20170;-81
2023/05/08 03:09:50;;;;;;;8.53;7.47;;;11.60;1.00;;;;;;5046388;28;20681;-83
2023/05/08 03:12:20;;;;;;;9.97;7.70;;;11.60;1.00;;;;;;5048192;28;20236;-80
2023/05/08 03:14:55;;;;;;;8.43;6.90;;;11.50;1.00;;;;;;5045905;28;20175;-81
2023/05/08 03:17:25;;;;;;;9.43;7.53;;;11.40;1.00;;;;;;5047519;28;20162;-79
2023/05/08 03:19:56;;;;;;;8.37;7.50;;;11.40;1.00;;;;;;5045924;28;20197;-80
2023/05/08 03:22:25;;;;;;;7.40;6.70;;;11.30;99.90;;;;;;5045696;28;20196;-82
2023/05/08 03:24:54;;;;;;;9.20;7.50;;;11.30;1.00;;;;;;5046021;28;20586;-80
2023/05/08 03:27:20;;;;;;;8.23;7.43;;;11.20;99.90;;;;;;5048125;28;20171;-80
2023/05/08 03:29:47;;;;;;;7.90;7.10;;;11.20;1.00;;;;;;5044194;28;20205;-80
2023/05/08 03:32:13;;;;;;;8.37;7.53;;;11.20;99.90;;;;;;5046812;28;20188;-83
2023/05/08 03:34:39;;;;;;;7.80;7.00;;;11.10;1.00;;;;;;5047300;28;20174;-80
2023/05/08 03:37:05;;;;;;;7.57;6.87;;;11.10;99.90;;;;;;5046837;28;20185;-81
2023/05/08 03:39:31;;;;;;;8.83;7.23;;;11.10;99.90;;;;;;5046891;28;20198;-83
2023/05/08 03:41:57;;;;;;;7.97;7.17;;;11.10;99.90;;;;;;5045441;28;20167;-79
2023/05/08 03:44:23;;;;;;;8.70;7.30;;;11.10;1.00;;;;;;5049159;28;20166;-80
2023/05/08 03:46:51;;;;;;;7.40;6.60;;;11.10;1.00;;;;;;5046369;28;20220;-83
2023/05/08 03:49:17;;;;;;;7.67;6.87;;;11.00;99.90;;;;;;5047638;28;20173;-80
2023/05/08 03:51:44;;;;;;;8.30;7.40;;;11.00;1.00;;;;;;5047494;28;20202;-80
2023/05/08 03:54:09;;;;;;;8.30;7.50;;;11.10;23.00;;;;;;5049422;28;20167;-82
2023/05/08 03:56:35;;;;;;;8.50;7.70;;;11.00;99.90;;;;;;5048148;28;20216;-80
2023/05/08 03:59:03;;;;;;;7.57;6.73;;;11.10;1.00;;;;;;5049402;28;20194;-80
2023/05/08 04:01:51;;;;;;;8.73;7.80;;;11.00;1.00;;;;;;5048427;28;20569;-80
2023/05/08 04:04:46;;;;;;;8.27;7.47;;;11.10;99.90;;;;;;5049028;28;20174;-82
2023/05/08 04:07:23;;;;;;;8.50;7.60;;;11.00;99.90;;;;;;5049732;28;20182;-82
2023/05/08 04:09:52;;;;;;;9.23;8.23;;;10.90;99.90;;;;;;5049935;28;20218;-82
2023/05/08 04:12:21;;;;;;;8.83;7.50;;;10.90;1.00;;;;;;5050341;28;20241;-80
2023/05/08 04:14:54;;;;;;;10.47;8.67;;;10.90;99.90;;;;;;5050932;28;20171;-79
2023/05/08 04:17:33;;;;;;;9.87;7.90;;;11.00;1.00;;;;;;5051543;28;20172;-80
2023/05/08 04:20:02;;;;;;;7.50;6.57;;;11.00;99.90;;;;;;5051186;28;20194;-81
2023/05/08 04:22:30;;;;;;;8.40;7.03;;;10.90;37.50;;;;;;5052832;28;20267;-81
2023/05/08 04:24:59;;;;;;;7.67;6.80;;;10.80;1.00;;;;;;5049314;28;20198;-80
2023/05/08 04:27:25;;;;;;;9.73;7.83;;;10.90;1.00;;;;;;5041096;28;20173;-82
2023/05/08 04:29:51;;;;;;;9.53;7.93;;;10.80;1.00;;;;;;5041305;28;20241;-81
2023/05/08 04:32:17;;;;;;;8.47;7.57;;;10.90;99.90;;;;;;5043279;28;20217;-80
2023/05/08 04:34:42;;;;;;;9.07;7.93;;;11.00;1.00;;;;;;5042403;28;20167;-79
2023/05/08 04:37:08;;;;;;;9.37;8.30;;;11.00;1.00;;;;;;5041458;28;20181;-80
2023/05/08 04:39:33;;;;;;;10.33;8.30;;;11.10;1.00;;;;;;5043728;28;20176;-81
2023/05/08 04:42:02;;;;;;;10.93;9.10;;;11.30;99.90;;;;;;5042873;28;20238;-80
2023/05/08 04:44:28;;;;;;;10.60;8.70;;;11.30;1.00;;;;;;5041881;28;20177;-80
2023/05/08 04:46:54;;;;;;;11.80;9.00;;;11.20;1.00;;;;;;5041517;28;20217;-80
2023/05/08 04:49:19;;;;;;;9.10;7.67;;;11.30;1.00;;;;;;5041259;28;20175;-82
2023/05/08 04:51:45;;;;;;;8.30;7.50;;;11.30;99.90;;;;;;5043760;28;20252;-80
2023/05/08 04:54:11;;;;;;;9.43;8.43;;;11.20;1.00;;;;;;5044089;28;20179;-80
2023/05/08 04:56:36;;;;;;;10.00;9.00;;;11.20;1.00;;;;;;5044397;28;20186;-80
2023/05/08 04:59:02;;;;;;;9.97;8.07;;;11.10;99.90;;;;;;5044301;28;20213;-81
2023/05/08 05:01:27;;;;;;;9.67;8.67;;;11.30;1.00;;;;;;5042857;28;20787;-79
2023/05/08 05:03:53;;;;;;;11.53;9.00;;;11.30;99.90;;;;;;5042402;28;20246;-78
2023/05/08 05:06:18;;;;;;;9.90;8.83;;;11.40;99.90;;;;;;5041852;28;20206;-80
2023/05/08 05:08:44;;;;;;;10.33;9.23;;;11.20;1.00;;;;;;5043452;28;20175;-79
2023/05/08 05:11:10;;;;;;;10.83;9.73;;;11.30;1.00;;;;;;5043538;28;20198;-81
2023/05/08 05:13:35;;;;;;;10.77;8.83;;;11.40;1.00;;;;;;5044854;28;20178;-80
2023/05/08 05:16:01;;;;;;;10.10;9.10;;;11.40;1.00;;;;;;5047870;28;20702;-81
2023/05/08 05:18:27;;;;;;;11.80;9.67;;;11.40;1.00;;;;;;5047573;28;20523;-80
2023/05/08 05:20:52;;;;;;;11.30;9.53;;;11.40;1.00;;;;;;5046807;28;20211;-80
2023/05/08 05:23:18;;;;;;;12.50;9.37;;;11.40;1.00;;;;;;5047120;28;20181;-81
2023/05/08 05:25:43;;;;;;;11.27;9.83;;;11.40;1.00;;;;;;5046166;28;20259;-81
2023/05/08 05:28:09;;;;;;;9.50;8.50;;;11.50;99.90;;;;;;5048913;28;20178;-81
2023/05/08 05:30:35;;;;;;;10.53;9.07;;;11.50;99.90;;;;;;5047278;28;20194;-81
2023/05/08 05:33:00;;;;;;;9.80;8.80;;;11.50;1.00;;;;;;5049556;28;20173;-81
2023/05/08 05:35:26;;;;;;;10.30;9.20;;;11.50;99.90;;;;;;5048043;28;20182;-80
2023/05/08 05:37:51;;;;;;;11.10;8.30;;;11.40;99.90;;;;;;5047699;28;20595;-78
2023/05/08 05:40:17;;;;;;;8.57;6.43;;;11.50;1.00;;;;;;5045877;28;20194;-83
2023/05/08 05:42:47;;;;;;;9.90;8.33;;;11.60;1.00;;;;;;5037538;28;20246;-80
2023/05/08 05:45:13;;;;;;;9.67;8.67;;;12.30;99.90;;;;;;5043975;28;20202;-81
2023/05/08 05:47:52;;;;;;;9.07;8.17;;;12.60;1.00;;;;;;5044624;28;20181;-81
2023/05/08 05:50:18;;;;;;;9.63;8.50;;;12.70;99.90;;;;;;5043093;28;20198;-79
2023/05/08 05:52:44;;;;;;;8.57;7.70;;;12.40;1.00;;;;;;5038812;28;20179;-79
2023/05/08 05:55:10;;;;;;;8.13;7.33;;;12.50;99.90;;;;;;5046229;28;20177;-81
2023/05/08 05:57:36;;;;;;;9.20;8.30;;;12.80;1.00;;;;;;5038692;28;20182;-80
2023/05/08 06:00:03;;;;;;;10.00;8.07;;;13.10;1.00;;;;;;5041483;28;20194;-83
2023/05/08 06:02:28;;;;;;;9.50;8.50;;;13.10;1.00;;;;;;5041056;28;20204;-82
2023/05/08 06:04:54;;;;;;;9.67;8.67;;;12.80;1.00;;;;;;5040241;28;20589;-81
2023/05/08 06:07:20;;;;;;;9.50;8.40;;;12.60;1.00;;;;;;5043029;28;20174;-82
2023/05/08 06:09:46;;;;;;;9.90;8.13;;;12.70;1.00;;;;;;5042708;28;20244;-81
2023/05/08 06:12:12;;;;;;;9.40;8.40;;;12.60;1.00;;;;;;5041238;28;20626;-81
2023/05/08 06:14:37;;;;;;;10.03;8.47;;;12.60;1.00;;;;;;5040797;28;20179;-82
2023/05/08 06:17:03;;;;;;;9.73;8.40;;;12.60;1.00;;;;;;5040540;28;20265;-80
2023/05/08 06:19:28;;;;;;;11.40;9.13;;;12.50;1.00;;;;;;5041569;28;20174;-82
2023/05/08 06:21:54;;;;;;;10.30;8.37;;;12.60;70.20;;;;;;5041621;28;20182;-81
2023/05/08 06:24:19;;;;;;;9.50;8.30;;;12.50;99.90;;;;;;5042226;28;20637;-80
2023/05/08 06:26:45;;;;;;;9.47;8.47;;;12.60;97.10;;;;;;5044176;28;20202;-80
2023/05/08 06:29:11;;;;;;;10.50;9.00;;;12.60;1.00;;;;;;5041593;28;20193;-80
2023/05/08 06:31:37;;;;;;;9.60;8.43;;;12.60;1.00;;;;;;5042317;28;20679;-81
2023/05/08 06:34:03;;;;;;;12.10;8.70;;;12.70;1.00;;;;;;5042263;28;20173;-82
2023/05/08 06:36:28;;;;;;;10.53;8.33;;;12.70;99.90;;;;;;5042867;28;20210;-81
2023/05/08 06:38:54;;;;;;;9.83;8.70;;;12.60;99.90;;;;;;5050989;28;20178;-80
2023/05/08 06:41:20;;;;;;;11.80;8.70;;;12.70;1.00;;;;;;5066896;28;20201;-84
2023/05/08 06:43:46;;;;;;;9.37;8.47;;;13.00;99.90;;;;;;5072378;28;20567;-80
2023/05/08 06:46:11;;;;;;;9.13;8.23;;;13.00;1.00;;;;;;5069012;28;20680;-80
2023/05/08 06:48:37;;;;;;;8.97;8.07;;;13.00;1.00;;;;;;5067475;28;20187;-81
2023/05/08 06:51:03;;;;;;;9.20;8.27;;;13.20;1.00;;;;;;5069427;28;20199;-82
2023/05/08 06:53:29;;;;;;;8.90;8.00;;;13.20;1.00;;;;;;5068717;28;20196;-80
2023/05/08 06:55:56;;;;;;;9.43;8.40;;;13.10;75.30;;;;;;5067577;28;20178;-80
2023/05/08 06:58:22;;;;;;;11.83;8.37;;;13.10;1.00;;;;;;5068302;28;20166;-81
2023/05/08 07:00:47;;;;;;;9.50;8.50;;;13.10;99.90;;;;;;5068070;28;20202;-81
2023/05/08 07:03:13;;;;;;;9.83;8.83;;;13.30;99.90;;;;;;5068750;28;20187;-82
2023/05/08 07:05:38;;;;;;;9.27;8.30;;;13.30;1.00;;;;;;5071042;28;20208;-80
2023/05/08 07:08:04;;;;;;;9.07;8.17;;;13.40;1.00;;;;;;5071407;28;20181;-81
2023/05/08 07:10:29;;;;;;;8.83;7.93;;;13.40;1.00;;;;;;5070406;28;20205;-82
2023/05/08 07:12:55;;;;;;;9.37;8.10;;;13.40;99.90;;;;;;5071466;28;20181;-81
2023/05/08 07:15:21;;;;;;;9.20;8.20;;;13.50;1.00;;;;;;5073094;28;20211;-81
2023/05/08 07:17:46;;;;;;;9.47;8.53;;;13.50;1.00;;;;;;5071547;28;20177;-81
2023/05/08 07:20:12;;;;;;;9.13;8.23;;;13.50;1.00;;;;;;5072639;28;20224;-82
2023/05/08 07:22:37;;;;;;;9.30;8.30;;;13.60;1.00;;;;;;5072658;28;20181;-81
2023/05/08 07:25:04;;;;;;;9.73;8.67;;;13.60;1.00;;;;;;5073551;28;20223;-81
2023/05/08 07:27:29;;;;;;;9.73;8.47;;;13.70;1.00;;;;;;5072931;28;20174;-81
2023/05/08 07:29:57;;;;;;;9.57;8.67;;;13.80;1.00;;;;;;5071855;28;20201;-81
2023/05/08 07:32:22;;;;;;;9.73;8.00;;;14.00;99.90;;;;;;5078782;28;20169;-83
2023/05/08 07:34:48;;;;;;;9.17;8.27;;;14.10;1.00;;;;;;5077792;28;20170;-79
2023/05/08 07:37:14;;;;;;;8.33;7.53;;;14.30;1.00;;;;;;5065332;28;20166;-80
2023/05/08 07:39:39;;;;;;;9.30;8.40;;;14.40;99.90;;;;;;5062876;28;20557;-81
2023/05/08 07:42:05;;;;;;;8.10;7.30;;;14.50;99.90;;;;;;5065583;28;20178;-80
2023/05/08 07:44:34;;;;;;;8.47;7.67;;;14.40;1.00;;;;;;5063317;28;20223;-80
2023/05/08 07:47:00;;;;;;;8.63;7.67;;;14.50;99.90;;;;;;5065774;28;20247;-80
2023/05/08 07:49:25;;;;;;;8.20;7.40;;;14.70;1.00;;;;;;5061520;28;20162;-80
2023/05/08 07:51:51;;;;;;;8.00;7.20;;;14.80;1.00;;;;;;5064624;28;20256;-79
2023/05/08 07:54:16;;;;;;;8.50;7.57;;;14.90;99.90;;;;;;5063420;28;20188;-80
2023/05/08 07:56:42;;;;;;;8.13;6.87;;;14.90;1.00;;;;;;5065336;28;20190;-80
2023/05/08 07:59:07;;;;;;;9.63;7.63;;;15.00;1.00;;;;;;5064342;28;20178;-80
2023/05/08 08:01:33;;;;;;;7.93;7.23;;;15.20;99.90;;;;;;5065260;28;20334;-80
2023/05/08 08:03:59;;;;;;;8.57;7.77;;;15.30;1.00;;;;;;5064757;28;20185;-80
2023/05/08 08:06:25;;;;;;;7.37;6.67;;;15.40;1.00;;;;;;5064643;28;20216;-79
2023/05/08 08:08:50;;;;;;;7.27;6.57;;;15.50;1.00;;;;;;5063528;28;20170;-80
2023/05/08 08:11:16;;;;;;;7.20;6.50;;;15.50;1.00;;;;;;5066052;28;20209;-80
2023/05/08 08:13:41;;;;;;;6.67;6.07;;;15.70;99.90;;;;;;5065436;28;20178;-80
2023/05/08 08:16:07;;;;;;;7.70;6.90;;;15.70;99.90;;;;;;5065625;28;20174;-80
2023/05/08 08:18:35;;;;;;;7.90;7.10;;;15.70;1.00;;;;;;5067161;28;20177;-80
2023/05/08 08:21:06;;;;;;;8.23;7.43;;;15.80;99.90;;;;;;5067377;28;20215;-80
2023/05/08 08:23:32;;;;;;;7.10;6.37;;;15.70;1.00;;;;;;5068170;28;20216;-80
2023/05/08 08:25:58;;;;;;;7.87;6.73;;;15.80;1.00;;;;;;5067112;28;20200;-80
2023/05/08 08:28:23;;;;;;;7.30;6.60;;;16.00;99.90;;;;;;5066812;28;20186;-80
2023/05/08 08:30:49;;;;;;;7.57;6.83;;;16.10;99.90;;;;;;5067273;28;20190;-80
2023/05/08 08:33:15;;;;;;;7.50;6.60;;;16.20;99.90;;;;;;5066492;28;20192;-83
2023/05/08 08:35:41;;;;;;;8.37;6.77;;;16.20;1.00;;;;;;5065691;28;20169;-80
2023/05/08 08:38:06;;;;;;;8.07;6.63;;;16.10;1.00;;;;;;5060523;28;20184;-80
2023/05/08 08:40:32;;;;;;;7.20;6.57;;;16.30;99.90;;;;;;5060601;28;20197;-80
2023/05/08 08:42:58;;;;;;;8.03;6.57;;;16.50;99.90;;;;;;5067862;28;20170;-81
2023/05/08 08:45:23;;;;;;;7.13;6.43;;;16.60;99.90;;;;;;5067697;28;20233;-82
2023/05/08 08:47:51;;;;;;;7.47;6.77;;;16.90;1.00;;;;;;5070696;28;20166;-80
2023/05/08 08:50:19;;;;;;;7.60;6.90;;;16.90;99.90;;;;;;5065873;28;20186;-80
2023/05/08 08:52:54;;;;;;;6.57;5.90;;;17.00;99.90;;;;;;5064418;28;20236;-80
2023/05/08 08:55:22;;;;;;;7.27;6.57;;;17.20;99.90;;;;;;5062201;28;20157;-80
2023/05/08 08:58:28;;;;;;;7.30;6.60;;;17.30;61.90;;;;;;5061539;28;20642;-80
2023/05/08 09:00:55;;;;;;;6.63;5.60;;;17.10;99.90;;;;;;5038345;28;20212;-80
2023/05/08 09:03:20;;;;;;;6.60;6.00;;;17.00;1.00;;;;;;5062472;28;20189;-80
2023/05/08 09:05:48;;;;;;;6.20;5.50;;;17.10;99.90;;;;;;5061058;28;20237;-82
2023/05/08 09:08:14;;;;;;;6.70;6.10;;;17.20;99.90;;;;;;5064446;28;20170;-80
2023/05/08 09:10:40;;;;;;;6.73;6.07;;;17.30;1.00;;;;;;5060980;28;20213;-80
2023/05/08 09:13:05;;;;;;;6.47;5.87;;;17.30;38.80;;;;;;5064685;28;20173;-80
2023/05/08 09:15:32;;;;;;;6.13;5.53;;;17.40;59.00;;;;;;5069452;28;20178;-80
2023/05/08 09:17:59;;;;;;;5.77;5.27;;;17.40;99.90;;;;;;5063245;28;20177;-80
2023/05/08 09:20:25;;;;;;;5.97;5.47;;;17.50;99.90;;;;;;5061600;28;20198;-81
2023/05/08 09:22:53;;;;;;;6.33;5.73;;;17.60;1.00;;;;;;5060956;28;20174;-81
2023/05/08 09:25:18;;;;;;;5.90;5.40;;;17.60;1.00;;;;;;5061204;28;20199;-80
2023/05/08 09:27:44;;;;;;;6.13;5.63;;;17.50;18.60;;;;;;5060608;28;20170;-80
2023/05/08 09:30:11;;;;;;;5.80;5.30;;;17.90;99.90;;;;;;5060757;28;20194;-81
2023/05/08 09:32:39;;;;;;;5.97;5.40;;;18.10;1.00;;;;;;5061716;28;20301;-79
2023/05/08 09:35:06;;;;;;;6.13;5.53;;;18.10;99.90;;;;;;5063104;28;20170;-80
2023/05/08 09:37:32;;;;;;;6.50;5.67;;;18.10;1.00;;;;;;5061296;28;20227;-81
2023/05/08 09:40:16;;;;;;;6.40;5.80;;;18.00;1.00;;;;;;5063472;28;20205;-80
2023/05/08 09:42:42;;;;;;;5.30;4.80;;;18.00;99.90;;;;;;5062249;28;20197;-80
2023/05/08 09:45:08;;;;;;;6.10;5.50;;;18.00;1.00;;;;;;5062694;28;20198;-80
2023/05/08 09:47:36;;;;;;;6.73;5.97;;;18.00;1.00;;;;;;5062127;28;20170;-80
2023/05/08 09:50:02;;;;;;;6.23;5.73;;;18.10;1.00;;;;;;5062265;28;20182;-80
2023/05/08 09:52:29;;;;;;;6.23;5.63;;;17.80;1.00;;;;;;5060222;28;20225;-80
2023/05/08 09:55:21;;;;;;;6.07;5.47;;;17.90;1.00;;;;;;5061020;28;20220;-80
2023/05/08 09:57:58;;;;;;;5.67;5.17;;;17.90;1.00;;;;;;5061432;28;20211;-80
2023/05/08 10:00:29;;;;;;;6.07;5.47;;;17.90;1.00;;;;;;5059585;28;20193;-80
2023/05/08 10:02:59;;;;;;;6.03;5.47;;;17.90;1.00;;;;;;5060581;28;20241;-81
2023/05/08 10:05:24;;;;;;;6.60;5.77;;;17.90;1.00;;;;;;5056737;28;20202;-80
2023/05/08 10:07:50;;;;;;;6.30;5.70;;;18.00;99.90;;;;;;5063579;28;20261;-80
2023/05/08 10:10:25;;;;;;;6.40;5.80;;;18.00;1.00;;;;;;5072767;28;20208;-80
2023/05/08 10:12:52;;;;;;;5.80;5.30;;;18.10;1.00;;;;;;5066822;28;20267;-79
2023/05/08 10:15:22;;;;;;;6.03;5.20;;;18.20;1.00;;;;;;5058875;28;20185;-78
2023/05/08 10:18:00;;;;;;;6.30;5.70;;;18.20;1.00;;;;;;5049863;28;20178;-79
2023/05/08 10:20:29;;;;;;;6.53;5.90;;;18.10;1.00;;;;;;5035315;28;20194;-79
2023/05/08 10:22:56;;;;;;;6.47;5.80;;;18.20;1.00;;;;;;5033021;28;20200;-79
2023/05/08 10:25:22;;;;;;;6.17;5.60;;;18.50;1.00;;;;;;5034347;28;20305;-79
2023/05/08 10:28:10;;;;;;;6.87;5.43;;;18.90;1.00;;;;;;5047363;28;20610;-81
2023/05/08 10:30:41;;;;;;;6.83;5.33;;;19.30;99.90;;;;;;5066099;28;20197;-83
2023/05/08 10:33:09;;;;;;;5.30;4.80;;;19.30;1.00;;;;;;5068905;28;20181;-82
2023/05/08 10:35:39;;;;;;;5.77;5.27;;;19.30;1.00;;;;;;5067233;28;20182;-82
2023/05/08 10:38:08;;;;;;;5.57;5.00;;;19.40;1.00;;;;;;5068284;28;20224;-83
2023/05/08 10:40:34;;;;;;;5.63;5.07;;;19.20;1.00;;;;;;5065858;28;20227;-82
2023/05/08 10:43:01;;;;;;;6.00;5.50;;;19.10;1.00;;;;;;5063870;28;20181;-80
2023/05/08 10:45:28;;;;;;;27.43;12.33;;;18.80;99.90;;;;;;5063232;28;20201;-82
2023/05/08 10:48:30;;;;;;;7.07;5.40;;;18.70;1.00;;;;;;5059143;28;20652;-82
2023/05/08 10:51:22;;;;;;;20.50;9.07;;;18.90;1.00;;;;;;5034849;28;20217;-81
2023/05/08 10:54:00;;;;;;;5.80;5.20;;;19.30;99.90;;;;;;5063790;28;20174;-81
2023/05/08 10:56:29;;;;;;;4.97;4.57;;;19.40;1.00;;;;;;5062484;28;20257;-82
2023/05/08 10:58:56;;;;;;;5.30;4.80;;;19.50;99.90;;;;;;5063447;28;20247;-81
2023/05/08 11:01:23;;;;;;;6.03;5.20;;;19.20;1.00;;;;;;5062639;28;20687;-82
2023/05/08 11:03:51;;;;;;;5.33;4.93;;;19.50;1.00;;;;;;5066030;28;20237;-81
2023/05/08 11:06:43;;;;;;;6.43;5.33;;;19.50;1.00;;;;;;5059277;28;20202;-81
2023/05/08 11:09:17;;;;;;;5.30;4.80;;;19.80;1.00;;;;;;5058148;28;20207;-81
2023/05/08 11:11:53;;;;;;;5.50;5.00;;;20.10;71.60;;;;;;5090099;22;20224;-86
2023/05/08 11:14:21;;;;;;;4.75;4.35;;;20.40;1.00;;;;;;5083380;28;20233;-86
2023/05/08 11:16:53;;;;;;;5.20;4.60;;;20.70;1.00;;;;;;5071749;28;20229;-86
2023/05/08 11:19:21;;;;;;;5.30;4.80;;;20.50;1.00;;;;;;5071763;28;20197;-86
2023/05/08 11:22:31;;;;;;;5.85;4.70;;;20.30;1.00;;;;;;5056148;28;20677;-86
2023/05/08 11:25:03;;;;;;;4.93;4.43;;;20.10;1.00;;;;;;5030030;28;20294;-85
2023/05/08 11:27:48;;;;;;;5.57;5.07;;;20.20;1.00;;;;;;5029922;28;20170;-85
2023/05/08 11:30:17;;;;;;;4.97;4.57;;;20.30;1.00;;;;;;5034257;28;20166;-87
2023/05/08 11:33:05;;;;;;;4.85;4.45;;;20.30;1.00;;;;;;5032728;28;20194;-87
2023/05/08 11:35:49;;;;;;;4.80;4.40;;;20.30;1.00;;;;;;5027438;28;20171;-85
2023/05/08 11:38:20;;;;;;;5.80;5.13;;;20.30;1.00;;;;;;5031993;28;20177;-86
2023/05/08 11:40:57;;;;;;;7.85;5.18;;;20.00;1.00;;;;;;5036754;28;20179;-83
2023/05/08 11:43:30;;;;;;;6.57;4.95;;;19.90;1.00;;;;;;5052896;28;20606;-85
2023/05/08 11:45:59;;;;;;;5.40;4.90;;;19.80;1.00;;;;;;5053654;28;20204;-84
2023/05/08 11:48:25;;;;;;;4.97;4.57;;;19.80;1.00;;;;;;5055145;28;20227;-84
2023/05/08 11:50:51;;;;;;;5.72;4.30;;;19.90;72.40;;;;;;5053762;28;20169;-85
2023/05/08 11:53:16;;;;;;;5.10;4.60;;;20.10;1.00;;;;;;5053878;28;20212;-81
2023/05/08 11:55:46;;;;;;;4.90;4.50;;;20.20;1.00;;;;;;5053843;28;20198;-82
2023/05/08 11:58:13;;;;;;;5.10;4.60;;;20.10;1.00;;;;;;5054188;28;20205;-82
2023/05/08 12:00:46;;;;;;;5.90;5.40;;;20.10;1.00;;;;;;5054299;28;20268;-83
2023/05/08 12:03:15;;;;;;;5.57;5.05;;;20.00;1.00;;;;;;5055586;28;20703;-82
2023/05/08 12:05:41;;;;;;;5.90;5.30;;;19.70;1.00;;;;;;5054294;28;20243;-82
2023/05/08 12:08:09;;;;;;;7.80;5.75;;;19.50;99.90;;;;;;5055285;28;20205;-81
2023/05/08 12:10:52;;;;;;;6.15;5.55;;;19.40;99.90;;;;;;5053893;28;20174;-82
2023/05/08 12:13:23;;;;;;;6.72;5.40;;;19.00;99.90;;;;;;5053975;28;20212;-82
2023/05/08 12:15:54;;;;;;;6.38;5.78;;;18.80;46.20;;;;;;5055120;28;20303;-82
2023/05/08 12:18:22;;;;;;;6.28;5.45;;;18.70;99.90;;;;;;5055233;28;20196;-82
2023/05/08 12:20:56;;;;;;;6.20;5.70;;;18.60;1.00;;;;;;5054609;28;20170;-83
2023/05/08 12:23:22;;;;;;;6.63;5.57;;;18.50;99.90;;;;;;5055032;28;20193;-81
2023/05/08 12:25:54;;;;;;;6.70;5.53;;;18.50;99.90;;;;;;5054292;28;20240;-83
2023/05/08 12:28:20;;;;;;;6.00;5.47;;;18.40;99.90;;;;;;5054553;28;20174;-85
2023/05/08 12:30:46;;;;;;;5.90;5.17;;;18.30;1.00;;;;;;5055329;28;20169;-82
2023/05/08 12:33:12;;;;;;;5.97;5.10;;;18.30;1.00;;;;;;5054752;28;20197;-82
2023/05/08 12:35:38;;;;;;;7.30;5.30;;;18.20;1.00;;;;;;5053055;28;20235;-83
2023/05/08 12:38:07;;;;;;;5.40;4.90;;;18.30;1.00;;;;;;5053054;28;20177;-82
2023/05/08 12:40:39;;;;;;;6.33;5.40;;;18.30;1.00;;;;;;5052614;28;20274;-83
2023/05/08 12:43:05;;;;;;;5.07;4.67;;;18.10;1.00;;;;;;5054239;28;20198;-82
2023/05/08 12:45:35;;;;;;;5.47;4.90;;;18.10;1.00;;;;;;5053328;28;20235;-82
2023/05/08 12:48:12;;;;;;;5.63;4.70;;;18.10;1.00;;;;;;5053074;28;20184;-83
2023/05/08 12:50:39;;;;;;;5.70;5.10;;;18.20;1.00;;;;;;5054131;28;20160;-83
2023/05/08 12:53:08;;;;;;;5.27;4.77;;;18.20;26.90;;;;;;5052685;28;20194;-82
2023/05/08 12:55:36;;;;;;;6.47;5.00;;;18.10;1.00;;;;;;5054440;28;20178;-83
2023/05/08 12:58:12;;;;;;;5.53;5.00;;;18.10;1.00;;;;;;5054595;28;20178;-82
2023/05/08 13:00:50;;;;;;;5.90;5.40;;;18.00;1.00;;;;;;5052923;28;20169;-82
2023/05/08 13:03:27;;;;;;;5.87;4.80;;;18.00;1.00;;;;;;5052828;28;20216;-83